sensor_id;sensor_type;location;lat;lon;timestamp;temperature;humidity
35445;DHT22;21562;49.476;6.086;2023-02-27T00:00:33;1.80;99.90
35445;DHT22;21562;49.476;6.086;2023-02-27T00:02:58;1.80;99.90
35445;DHT22;21562;49.476;6.086;2023-02-27T00:05:24;1.70;99.90
35445;DHT22;21562;49.476;6.086;2023-02-27T00:07:50;1.80;99.90
35445;DHT22;21562;49.476;6.086;2023-02-27T00:10:16;1.90;99.90
35445;DHT22;21562;49.476;6.086;2023-02-27T00:12:42;1.80;99.90
35445;DHT22;21562;49.476;6.086;2023-02-27T00:15:14;1.90;99.90
35445;DHT22;21562;49.476;6.086;2023-02-27T00:17:40;2.00;99.90
35445;DHT22;21562;49.476;6.086;2023-02-27T00:20:07;2.00;99.90
35445;DHT22;21562;49.476;6.086;2023-02-27T00:22:35;2.20;99.90
35445;DHT22;21562;49.476;6.086;2023-02-27T00:25:01;2.30;99.90
35445;DHT22;21562;49.476;6.086;2023-02-27T00:27:27;2.40;99.90
35445;DHT22;21562;49.476;6.086;2023-02-27T00:29:52;2.50;99.90
35445;DHT22;21562;49.476;6.086;2023-02-27T00:32:18;2.40;99.90
35445;DHT22;21562;49.476;6.086;2023-02-27T00:34:44;2.50;99.90
35445;DHT22;21562;49.476;6.086;2023-02-27T00:37:10;2.50;99.90
35445;DHT22;21562;49.476;6.086;2023-02-27T00:39:35;2.10;99.90
35445;DHT22;21562;49.476;6.086;2023-02-27T00:42:01;2.00;99.90
35445;DHT22;21562;49.476;6.086;2023-02-27T00:44:27;2.10;99.90
35445;DHT22;21562;49.476;6.086;2023-02-27T00:46:52;2.20;99.90
35445;DHT22;21562;49.476;6.086;2023-02-27T00:49:18;2.00;99.90
35445;DHT22;21562;49.476;6.086;2023-02-27T00:51:44;1.90;99.90
35445;DHT22;21562;49.476;6.086;2023-02-27T00:54:10;1.70;99.90
35445;DHT22;21562;49.476;6.086;2023-02-27T00:56:35;1.70;99.90
35445;DHT22;21562;49.476;6.086;2023-02-27T00:59:01;1.40;99.90
35445;DHT22;21562;49.476;6.086;2023-02-27T01:01:27;1.40;99.90
35445;DHT22;21562;49.476;6.086;2023-02-27T01:03:52;1.60;99.90
35445;DHT22;21562;49.476;6.086;2023-02-27T01:06:18;1.60;99.90
35445;DHT22;21562;49.476;6.086;2023-02-27T01:08:44;1.70;99.90
35445;DHT22;21562;49.476;6.086;2023-02-27T01:11:09;1.80;99.90
35445;DHT22;21562;49.476;6.086;2023-02-27T01:13:35;2.00;99.90
35445;DHT22;21562;49.476;6.086;2023-02-27T01:16:00;1.80;99.90
35445;DHT22;21562;49.476;6.086;2023-02-27T01:18:26;1.70;99.90
35445;DHT22;21562;49.476;6.086;2023-02-27T01:20:53;1.90;99.90
35445;DHT22;21562;49.476;6.086;2023-02-27T01:23:19;1.90;99.90
35445;DHT22;21562;49.476;6.086;2023-02-27T01:25:46;2.00;99.90
35445;DHT22;21562;49.476;6.086;2023-02-27T01:28:12;1.90;99.90
35445;DHT22;21562;49.476;6.086;2023-02-27T01:30:37;1.70;99.90
35445;DHT22;21562;49.476;6.086;2023-02-27T01:33:03;1.50;99.90
35445;DHT22;21562;49.476;6.086;2023-02-27T01:35:28;1.50;99.90
35445;DHT22;21562;49.476;6.086;2023-02-27T01:37:54;1.40;99.90
35445;DHT22;21562;49.476;6.086;2023-02-27T01:40:20;1.20;99.90
35445;DHT22;21562;49.476;6.086;2023-02-27T01:42:45;1.40;99.90
35445;DHT22;21562;49.476;6.086;2023-02-27T01:47:45;1.30;99.90
35445;DHT22;21562;49.476;6.086;2023-02-27T01:50:13;1.50;99.90
35445;DHT22;21562;49.476;6.086;2023-02-27T01:52:40;1.30;99.90
35445;DHT22;21562;49.476;6.086;2023-02-27T01:55:08;1.50;99.90
35445;DHT22;21562;49.476;6.086;2023-02-27T01:57:38;1.50;99.90
35445;DHT22;21562;49.476;6.086;2023-02-27T02:00:05;1.50;99.90
35445;DHT22;21562;49.476;6.086;2023-02-27T02:02:37;1.70;99.90
35445;DHT22;21562;49.476;6.086;2023-02-27T02:05:06;1.50;99.90
35445;DHT22;21562;49.476;6.086;2023-02-27T02:07:35;1.30;99.90
35445;DHT22;21562;49.476;6.086;2023-02-27T02:10:03;1.40;99.90
35445;DHT22;21562;49.476;6.086;2023-02-27T02:12:33;1.60;99.90
35445;DHT22;21562;49.476;6.086;2023-02-27T02:14:59;1.60;99.90
35445;DHT22;21562;49.476;6.086;2023-02-27T02:26:06;1.70;99.90
35445;DHT22;21562;49.476;6.086;2023-02-27T02:29:22;1.80;99.90
35445;DHT22;21562;49.476;6.086;2023-02-27T02:46:06;1.20;99.90
35445;DHT22;21562;49.476;6.086;2023-02-27T02:48:43;1.00;99.90
35445;DHT22;21562;49.476;6.086;2023-02-27T02:52:02;1.10;99.90
35445;DHT22;21562;49.476;6.086;2023-02-27T02:54:05;1.40;99.90
35445;DHT22;21562;49.476;6.086;2023-02-27T02:56:42;1.50;99.90
35445;DHT22;21562;49.476;6.086;2023-02-27T02:59:20;1.20;99.90
35445;DHT22;21562;49.476;6.086;2023-02-27T03:02:17;1.00;99.90
35445;DHT22;21562;49.476;6.086;2023-02-27T03:04:48;1.00;99.90
35445;DHT22;21562;49.476;6.086;2023-02-27T03:07:41;1.00;99.90
35445;DHT22;21562;49.476;6.086;2023-02-27T03:10:16;0.90;99.90
35445;DHT22;21562;49.476;6.086;2023-02-27T03:12:49;1.00;99.90
35445;DHT22;21562;49.476;6.086;2023-02-27T03:15:34;1.20;99.90
35445;DHT22;21562;49.476;6.086;2023-02-27T03:18:24;1.20;99.90
35445;DHT22;21562;49.476;6.086;2023-02-27T03:20:58;1.20;99.90
35445;DHT22;21562;49.476;6.086;2023-02-27T03:23:35;1.10;99.90
35445;DHT22;21562;49.476;6.086;2023-02-27T03:26:03;1.00;99.90
35445;DHT22;21562;49.476;6.086;2023-02-27T03:28:34;1.10;99.90
35445;DHT22;21562;49.476;6.086;2023-02-27T03:31:18;1.20;99.90
35445;DHT22;21562;49.476;6.086;2023-02-27T03:33:51;1.30;99.90
35445;DHT22;21562;49.476;6.086;2023-02-27T03:36:20;1.40;99.90
35445;DHT22;21562;49.476;6.086;2023-02-27T03:39:01;1.20;99.90
35445;DHT22;21562;49.476;6.086;2023-02-27T03:41:33;1.40;99.90
35445;DHT22;21562;49.476;6.086;2023-02-27T03:44:07;1.30;99.90
35445;DHT22;21562;49.476;6.086;2023-02-27T03:46:34;1.20;99.90
35445;DHT22;21562;49.476;6.086;2023-02-27T03:49:01;1.00;99.90
35445;DHT22;21562;49.476;6.086;2023-02-27T03:51:27;1.00;99.90
35445;DHT22;21562;49.476;6.086;2023-02-27T03:54:21;1.00;99.90
35445;DHT22;21562;49.476;6.086;2023-02-27T03:56:59;1.20;99.90
35445;DHT22;21562;49.476;6.086;2023-02-27T03:59:26;1.10;99.90
35445;DHT22;21562;49.476;6.086;2023-02-27T04:01:53;1.10;99.90
35445;DHT22;21562;49.476;6.086;2023-02-27T04:04:19;0.90;99.90
35445;DHT22;21562;49.476;6.086;2023-02-27T04:06:55;0.90;99.90
35445;DHT22;21562;49.476;6.086;2023-02-27T04:10:18;1.00;99.90
35445;DHT22;21562;49.476;6.086;2023-02-27T04:13:18;0.70;99.90
35445;DHT22;21562;49.476;6.086;2023-02-27T04:21:19;0.60;99.90
35445;DHT22;21562;49.476;6.086;2023-02-27T04:24:12;0.80;99.90
35445;DHT22;21562;49.476;6.086;2023-02-27T04:26:48;1.00;99.90
35445;DHT22;21562;49.476;6.086;2023-02-27T04:34:41;1.20;99.90
35445;DHT22;21562;49.476;6.086;2023-02-27T04:37:24;1.00;99.90
35445;DHT22;21562;49.476;6.086;2023-02-27T04:39:56;0.90;99.90
35445;DHT22;21562;49.476;6.086;2023-02-27T04:42:29;1.00;99.90
35445;DHT22;21562;49.476;6.086;2023-02-27T04:44:58;1.20;99.90
35445;DHT22;21562;49.476;6.086;2023-02-27T04:47:28;0.90;99.90
35445;DHT22;21562;49.476;6.086;2023-02-27T04:50:24;0.70;99.90
35445;DHT22;21562;49.476;6.086;2023-02-27T04:52:59;0.70;99.90
35445;DHT22;21562;49.476;6.086;2023-02-27T04:55:31;0.90;99.90
35445;DHT22;21562;49.476;6.086;2023-02-27T04:58:06;1.00;99.90
35445;DHT22;21562;49.476;6.086;2023-02-27T05:00:35;1.20;99.90
35445;DHT22;21562;49.476;6.086;2023-02-27T05:03:12;1.10;99.90
35445;DHT22;21562;49.476;6.086;2023-02-27T05:05:41;0.90;99.90
35445;DHT22;21562;49.476;6.086;2023-02-27T05:08:19;0.90;99.90
35445;DHT22;21562;49.476;6.086;2023-02-27T05:13:30;1.00;99.90
35445;DHT22;21562;49.476;6.086;2023-02-27T05:16:26;0.90;99.90
35445;DHT22;21562;49.476;6.086;2023-02-27T05:18:54;1.10;99.90
35445;DHT22;21562;49.476;6.086;2023-02-27T05:21:33;1.30;99.90
35445;DHT22;21562;49.476;6.086;2023-02-27T05:24:17;1.20;99.90
35445;DHT22;21562;49.476;6.086;2023-02-27T05:29:41;0.80;99.90
35445;DHT22;21562;49.476;6.086;2023-02-27T05:35:00;0.70;99.90
35445;DHT22;21562;49.476;6.086;2023-02-27T05:37:43;0.70;99.90
35445;DHT22;21562;49.476;6.086;2023-02-27T05:40:14;0.90;99.90
35445;DHT22;21562;49.476;6.086;2023-02-27T05:42:51;0.90;99.90
35445;DHT22;21562;49.476;6.086;2023-02-27T05:45:24;1.00;99.90
35445;DHT22;21562;49.476;6.086;2023-02-27T05:48:04;0.80;99.90
35445;DHT22;21562;49.476;6.086;2023-02-27T05:50:33;1.00;99.90
35445;DHT22;21562;49.476;6.086;2023-02-27T05:53:03;0.70;99.90
35445;DHT22;21562;49.476;6.086;2023-02-27T05:55:40;0.50;99.90
35445;DHT22;21562;49.476;6.086;2023-02-27T05:58:29;0.60;99.90
35445;DHT22;21562;49.476;6.086;2023-02-27T06:01:02;0.30;99.90
35445;DHT22;21562;49.476;6.086;2023-02-27T06:03:30;0.40;99.90
35445;DHT22;21562;49.476;6.086;2023-02-27T06:05:58;0.40;99.90
35445;DHT22;21562;49.476;6.086;2023-02-27T06:08:25;0.40;99.90
35445;DHT22;21562;49.476;6.086;2023-02-27T06:10:51;0.40;99.90
35445;DHT22;21562;49.476;6.086;2023-02-27T06:13:17;0.50;99.90
35445;DHT22;21562;49.476;6.086;2023-02-27T06:15:43;0.80;99.90
35445;DHT22;21562;49.476;6.086;2023-02-27T06:18:10;0.80;99.90
35445;DHT22;21562;49.476;6.086;2023-02-27T06:20:37;0.80;99.90
35445;DHT22;21562;49.476;6.086;2023-02-27T06:23:03;0.60;99.90
35445;DHT22;21562;49.476;6.086;2023-02-27T06:25:28;0.50;99.90
35445;DHT22;21562;49.476;6.086;2023-02-27T06:27:54;0.60;99.90
35445;DHT22;21562;49.476;6.086;2023-02-27T06:30:20;0.60;99.90
35445;DHT22;21562;49.476;6.086;2023-02-27T06:32:45;0.80;99.90
35445;DHT22;21562;49.476;6.086;2023-02-27T06:35:11;0.70;99.90
35445;DHT22;21562;49.476;6.086;2023-02-27T06:37:37;0.80;99.90
35445;DHT22;21562;49.476;6.086;2023-02-27T06:40:03;0.60;99.90
35445;DHT22;21562;49.476;6.086;2023-02-27T06:42:31;0.60;99.90
35445;DHT22;21562;49.476;6.086;2023-02-27T06:44:57;0.30;99.90
35445;DHT22;21562;49.476;6.086;2023-02-27T06:47:23;0.40;99.90
35445;DHT22;21562;49.476;6.086;2023-02-27T06:49:48;0.50;99.90
35445;DHT22;21562;49.476;6.086;2023-02-27T06:52:14;0.50;99.90
35445;DHT22;21562;49.476;6.086;2023-02-27T06:54:39;0.70;99.90
35445;DHT22;21562;49.476;6.086;2023-02-27T06:57:05;0.70;99.90
35445;DHT22;21562;49.476;6.086;2023-02-27T06:59:31;0.60;99.90
35445;DHT22;21562;49.476;6.086;2023-02-27T07:01:57;0.90;99.90
35445;DHT22;21562;49.476;6.086;2023-02-27T07:04:23;0.80;99.90
35445;DHT22;21562;49.476;6.086;2023-02-27T07:06:49;0.90;99.90
35445;DHT22;21562;49.476;6.086;2023-02-27T07:09:15;0.80;99.90
35445;DHT22;21562;49.476;6.086;2023-02-27T07:11:41;0.70;99.90
35445;DHT22;21562;49.476;6.086;2023-02-27T07:14:06;0.80;99.90
35445;DHT22;21562;49.476;6.086;2023-02-27T07:16:32;0.60;99.90
35445;DHT22;21562;49.476;6.086;2023-02-27T07:18:58;0.60;99.90
35445;DHT22;21562;49.476;6.086;2023-02-27T07:21:23;0.70;99.90
35445;DHT22;21562;49.476;6.086;2023-02-27T07:23:49;0.70;99.90
35445;DHT22;21562;49.476;6.086;2023-02-27T07:26:15;0.70;99.90
35445;DHT22;21562;49.476;6.086;2023-02-27T07:28:40;0.90;99.90
35445;DHT22;21562;49.476;6.086;2023-02-27T07:31:06;0.70;99.90
35445;DHT22;21562;49.476;6.086;2023-02-27T07:33:31;0.80;99.90
35445;DHT22;21562;49.476;6.086;2023-02-27T07:35:58;1.00;99.90
35445;DHT22;21562;49.476;6.086;2023-02-27T07:38:24;0.90;99.90
35445;DHT22;21562;49.476;6.086;2023-02-27T07:40:51;0.70;99.90
35445;DHT22;21562;49.476;6.086;2023-02-27T07:43:17;0.70;99.90
35445;DHT22;21562;49.476;6.086;2023-02-27T07:45:44;0.90;99.90
35445;DHT22;21562;49.476;6.086;2023-02-27T07:48:09;1.00;99.90
35445;DHT22;21562;49.476;6.086;2023-02-27T07:50:36;1.10;99.90
35445;DHT22;21562;49.476;6.086;2023-02-27T07:53:01;1.00;99.90
35445;DHT22;21562;49.476;6.086;2023-02-27T07:55:27;1.00;99.90
35445;DHT22;21562;49.476;6.086;2023-02-27T07:57:53;0.90;99.90
35445;DHT22;21562;49.476;6.086;2023-02-27T08:00:19;0.80;99.90
35445;DHT22;21562;49.476;6.086;2023-02-27T08:02:44;0.90;99.90
35445;DHT22;21562;49.476;6.086;2023-02-27T08:05:10;1.00;99.90
35445;DHT22;21562;49.476;6.086;2023-02-27T08:07:36;1.30;99.90
35445;DHT22;21562;49.476;6.086;2023-02-27T08:10:03;1.30;99.90
35445;DHT22;21562;49.476;6.086;2023-02-27T08:12:29;1.50;99.90
35445;DHT22;21562;49.476;6.086;2023-02-27T08:14:54;1.40;99.90
35445;DHT22;21562;49.476;6.086;2023-02-27T08:17:20;1.50;99.90
35445;DHT22;21562;49.476;6.086;2023-02-27T08:19:46;1.20;99.90
35445;DHT22;21562;49.476;6.086;2023-02-27T08:22:11;1.40;99.90
35445;DHT22;21562;49.476;6.086;2023-02-27T08:24:37;1.40;99.90
35445;DHT22;21562;49.476;6.086;2023-02-27T08:27:05;1.50;99.90
35445;DHT22;21562;49.476;6.086;2023-02-27T08:29:31;1.60;99.90
35445;DHT22;21562;49.476;6.086;2023-02-27T08:31:58;1.60;99.90
35445;DHT22;21562;49.476;6.086;2023-02-27T08:34:23;1.70;99.90
35445;DHT22;21562;49.476;6.086;2023-02-27T08:36:50;1.90;99.90
35445;DHT22;21562;49.476;6.086;2023-02-27T08:39:16;1.90;99.90
35445;DHT22;21562;49.476;6.086;2023-02-27T08:41:42;2.00;99.90
35445;DHT22;21562;49.476;6.086;2023-02-27T08:44:10;1.90;99.90
35445;DHT22;21562;49.476;6.086;2023-02-27T08:46:36;2.20;99.90
35445;DHT22;21562;49.476;6.086;2023-02-27T08:49:02;2.50;99.90
35445;DHT22;21562;49.476;6.086;2023-02-27T08:51:27;2.50;99.90
35445;DHT22;21562;49.476;6.086;2023-02-27T08:53:53;2.40;99.90
35445;DHT22;21562;49.476;6.086;2023-02-27T08:56:23;2.70;99.90
35445;DHT22;21562;49.476;6.086;2023-02-27T08:58:50;2.70;99.90
35445;DHT22;21562;49.476;6.086;2023-02-27T09:01:16;2.60;99.90
35445;DHT22;21562;49.476;6.086;2023-02-27T09:03:41;2.80;99.90
35445;DHT22;21562;49.476;6.086;2023-02-27T09:06:07;3.00;99.90
35445;DHT22;21562;49.476;6.086;2023-02-27T09:08:33;2.90;99.90
35445;DHT22;21562;49.476;6.086;2023-02-27T09:10:59;3.20;99.90
35445;DHT22;21562;49.476;6.086;2023-02-27T09:13:24;3.20;99.90
35445;DHT22;21562;49.476;6.086;2023-02-27T09:15:51;3.30;99.90
35445;DHT22;21562;49.476;6.086;2023-02-27T09:18:17;3.50;99.90
35445;DHT22;21562;49.476;6.086;2023-02-27T09:20:43;3.60;99.90
35445;DHT22;21562;49.476;6.086;2023-02-27T09:23:09;3.40;99.90
35445;DHT22;21562;49.476;6.086;2023-02-27T09:25:35;3.40;99.90
35445;DHT22;21562;49.476;6.086;2023-02-27T09:28:00;3.50;99.90
35445;DHT22;21562;49.476;6.086;2023-02-27T09:30:26;3.50;99.90
35445;DHT22;21562;49.476;6.086;2023-02-27T09:32:52;3.60;99.00
35445;DHT22;21562;49.476;6.086;2023-02-27T09:35:18;3.80;98.90
35445;DHT22;21562;49.476;6.086;2023-02-27T09:37:47;4.00;98.80
35445;DHT22;21562;49.476;6.086;2023-02-27T09:40:27;4.10;97.80
35445;DHT22;21562;49.476;6.086;2023-02-27T09:42:56;3.70;98.30
35445;DHT22;21562;49.476;6.086;2023-02-27T09:45:27;3.90;98.90
35445;DHT22;21562;49.476;6.086;2023-02-27T09:48:05;4.10;98.50
35445;DHT22;21562;49.476;6.086;2023-02-27T09:50:47;4.10;98.30
35445;DHT22;21562;49.476;6.086;2023-02-27T09:53:24;4.50;96.30
35445;DHT22;21562;49.476;6.086;2023-02-27T09:56:05;4.40;96.70
35445;DHT22;21562;49.476;6.086;2023-02-27T09:58:41;4.40;96.70
35445;DHT22;21562;49.476;6.086;2023-02-27T10:01:22;4.60;96.00
35445;DHT22;21562;49.476;6.086;2023-02-27T10:09:59;4.80;95.30
35445;DHT22;21562;49.476;6.086;2023-02-27T10:12:39;5.20;95.10
35445;DHT22;21562;49.476;6.086;2023-02-27T10:17:45;5.50;94.10
35445;DHT22;21562;49.476;6.086;2023-02-27T10:20:29;5.80;93.80
35445;DHT22;21562;49.476;6.086;2023-02-27T10:23:02;6.10;92.90
35445;DHT22;21562;49.476;6.086;2023-02-27T10:25:42;5.30;93.40
35445;DHT22;21562;49.476;6.086;2023-02-27T10:28:17;5.00;93.80
35445;DHT22;21562;49.476;6.086;2023-02-27T10:30:54;5.40;93.60
35445;DHT22;21562;49.476;6.086;2023-02-27T10:35:51;5.80;92.40
35445;DHT22;21562;49.476;6.086;2023-02-27T10:38:24;5.50;92.90
35445;DHT22;21562;49.476;6.086;2023-02-27T10:40:54;5.40;93.00
35445;DHT22;21562;49.476;6.086;2023-02-27T10:43:20;5.90;92.80
35445;DHT22;21562;49.476;6.086;2023-02-27T10:45:47;6.20;91.70
35445;DHT22;21562;49.476;6.086;2023-02-27T10:48:13;5.60;91.60
35445;DHT22;21562;49.476;6.086;2023-02-27T10:50:45;5.60;91.80
35445;DHT22;21562;49.476;6.086;2023-02-27T10:53:21;5.80;91.80
35445;DHT22;21562;49.476;6.086;2023-02-27T10:56:00;6.00;91.40
35445;DHT22;21562;49.476;6.086;2023-02-27T10:58:31;6.30;91.00
35445;DHT22;21562;49.476;6.086;2023-02-27T11:01:00;6.40;90.60
35445;DHT22;21562;49.476;6.086;2023-02-27T11:03:31;6.40;90.90
35445;DHT22;21562;49.476;6.086;2023-02-27T11:08:32;6.20;90.20
35445;DHT22;21562;49.476;6.086;2023-02-27T11:11:09;6.10;90.30
35445;DHT22;21562;49.476;6.086;2023-02-27T11:13:40;6.60;90.40
35445;DHT22;21562;49.476;6.086;2023-02-27T11:16:17;7.10;89.40
35445;DHT22;21562;49.476;6.086;2023-02-27T11:34:54;7.10;87.20
35445;DHT22;21562;49.476;6.086;2023-02-27T11:37:31;6.90;85.00
35445;DHT22;21562;49.476;6.086;2023-02-27T11:42:30;6.70;87.40
35445;DHT22;21562;49.476;6.086;2023-02-27T11:45:00;6.90;86.10
35445;DHT22;21562;49.476;6.086;2023-02-27T11:55:24;7.80;84.90
35445;DHT22;21562;49.476;6.086;2023-02-27T11:58:05;7.50;84.50
35445;DHT22;21562;49.476;6.086;2023-02-27T12:00:42;7.30;84.90
35445;DHT22;21562;49.476;6.086;2023-02-27T12:03:33;7.60;85.90
35445;DHT22;21562;49.476;6.086;2023-02-27T12:06:10;7.70;84.40
35445;DHT22;21562;49.476;6.086;2023-02-27T12:11:20;7.30;85.40
35445;DHT22;21562;49.476;6.086;2023-02-27T12:13:51;7.40;86.00
35445;DHT22;21562;49.476;6.086;2023-02-27T12:18:48;7.50;84.90
35445;DHT22;21562;49.476;6.086;2023-02-27T12:24:15;7.90;85.40
35445;DHT22;21562;49.476;6.086;2023-02-27T12:29:38;7.80;84.60
35445;DHT22;21562;49.476;6.086;2023-02-27T12:32:17;7.70;84.40
35445;DHT22;21562;49.476;6.086;2023-02-27T12:34:45;7.60;85.30
35445;DHT22;21562;49.476;6.086;2023-02-27T12:37:14;7.70;84.90
35445;DHT22;21562;49.476;6.086;2023-02-27T12:39:43;7.50;85.00
35445;DHT22;21562;49.476;6.086;2023-02-27T12:42:32;7.90;86.30
35445;DHT22;21562;49.476;6.086;2023-02-27T12:45:22;8.30;84.80
35445;DHT22;21562;49.476;6.086;2023-02-27T12:48:30;7.70;85.80
35445;DHT22;21562;49.476;6.086;2023-02-27T12:53:47;7.50;84.90
35445;DHT22;21562;49.476;6.086;2023-02-27T12:56:20;7.20;86.50
35445;DHT22;21562;49.476;6.086;2023-02-27T12:59:04;6.90;86.60
35445;DHT22;21562;49.476;6.086;2023-02-27T13:01:47;6.60;87.90
35445;DHT22;21562;49.476;6.086;2023-02-27T13:04:23;6.80;87.60
35445;DHT22;21562;49.476;6.086;2023-02-27T13:09:48;6.60;89.20
35445;DHT22;21562;49.476;6.086;2023-02-27T13:12:35;6.60;89.30
35445;DHT22;21562;49.476;6.086;2023-02-27T13:15:27;7.00;89.20
35445;DHT22;21562;49.476;6.086;2023-02-27T13:18:08;7.10;88.80
35445;DHT22;21562;49.476;6.086;2023-02-27T13:20:46;6.80;89.10
35445;DHT22;21562;49.476;6.086;2023-02-27T13:25:46;7.50;89.40
35445;DHT22;21562;49.476;6.086;2023-02-27T13:28:17;7.40;87.80
35445;DHT22;21562;49.476;6.086;2023-02-27T13:33:52;7.40;88.00
35445;DHT22;21562;49.476;6.086;2023-02-27T13:36:24;7.30;88.00
35445;DHT22;21562;49.476;6.086;2023-02-27T13:38:52;7.20;89.00
35445;DHT22;21562;49.476;6.086;2023-02-27T13:43:58;7.60;88.60
35445;DHT22;21562;49.476;6.086;2023-02-27T13:46:28;8.00;87.70
35445;DHT22;21562;49.476;6.086;2023-02-27T13:51:44;8.00;88.60
35445;DHT22;21562;49.476;6.086;2023-02-27T13:59:39;8.80;88.50
35445;DHT22;21562;49.476;6.086;2023-02-27T14:04:52;8.40;88.30
35445;DHT22;21562;49.476;6.086;2023-02-27T14:07:25;8.60;87.30
35445;DHT22;21562;49.476;6.086;2023-02-27T14:10:00;8.70;87.50
35445;DHT22;21562;49.476;6.086;2023-02-27T14:12:34;8.90;85.70
35445;DHT22;21562;49.476;6.086;2023-02-27T14:15:01;8.40;86.60
35445;DHT22;21562;49.476;6.086;2023-02-27T14:20:00;8.10;86.60
35445;DHT22;21562;49.476;6.086;2023-02-27T14:22:36;7.60;87.70
35445;DHT22;21562;49.476;6.086;2023-02-27T14:25:13;7.50;88.80
35445;DHT22;21562;49.476;6.086;2023-02-27T14:27:45;8.20;88.40
35445;DHT22;21562;49.476;6.086;2023-02-27T14:30:31;8.90;85.30
35445;DHT22;21562;49.476;6.086;2023-02-27T14:35:35;9.00;85.00
35445;DHT22;21562;49.476;6.086;2023-02-27T14:38:07;9.20;83.80
35445;DHT22;21562;49.476;6.086;2023-02-27T14:40:38;9.60;82.40
35445;DHT22;21562;49.476;6.086;2023-02-27T14:43:33;8.80;83.60
35445;DHT22;21562;49.476;6.086;2023-02-27T14:46:06;8.70;84.00
35445;DHT22;21562;49.476;6.086;2023-02-27T14:48:36;8.30;84.90
35445;DHT22;21562;49.476;6.086;2023-02-27T14:51:04;8.40;84.70
35445;DHT22;21562;49.476;6.086;2023-02-27T14:53:29;8.70;84.90
35445;DHT22;21562;49.476;6.086;2023-02-27T14:55:57;9.00;84.00
35445;DHT22;21562;49.476;6.086;2023-02-27T14:58:24;9.20;84.30
35445;DHT22;21562;49.476;6.086;2023-02-27T15:01:01;9.70;82.10
35445;DHT22;21562;49.476;6.086;2023-02-27T15:03:45;9.90;81.30
35445;DHT22;21562;49.476;6.086;2023-02-27T15:06:23;9.50;80.60
35445;DHT22;21562;49.476;6.086;2023-02-27T15:08:52;9.20;81.10
35445;DHT22;21562;49.476;6.086;2023-02-27T15:11:22;9.40;82.60
35445;DHT22;21562;49.476;6.086;2023-02-27T15:14:05;9.10;80.20
35445;DHT22;21562;49.476;6.086;2023-02-27T15:16:35;8.50;81.70
35445;DHT22;21562;49.476;6.086;2023-02-27T15:19:03;8.40;82.50
35445;DHT22;21562;49.476;6.086;2023-02-27T15:21:36;8.60;81.60
35445;DHT22;21562;49.476;6.086;2023-02-27T15:24:04;8.50;81.00
35445;DHT22;21562;49.476;6.086;2023-02-27T15:26:35;8.20;80.70
35445;DHT22;21562;49.476;6.086;2023-02-27T15:29:03;8.10;81.80
35445;DHT22;21562;49.476;6.086;2023-02-27T15:31:29;8.10;81.50
35445;DHT22;21562;49.476;6.086;2023-02-27T15:33:58;8.30;81.20
35445;DHT22;21562;49.476;6.086;2023-02-27T15:36:32;8.50;81.50
35445;DHT22;21562;49.476;6.086;2023-02-27T15:41:30;8.80;80.70
35445;DHT22;21562;49.476;6.086;2023-02-27T15:43:56;8.80;81.10
35445;DHT22;21562;49.476;6.086;2023-02-27T15:46:22;8.50;81.80
35445;DHT22;21562;49.476;6.086;2023-02-27T15:48:49;8.70;81.60
35445;DHT22;21562;49.476;6.086;2023-02-27T15:51:16;8.20;82.00
35445;DHT22;21562;49.476;6.086;2023-02-27T15:53:47;8.30;83.80
35445;DHT22;21562;49.476;6.086;2023-02-27T15:56:14;8.70;81.70
35445;DHT22;21562;49.476;6.086;2023-02-27T15:58:50;8.30;82.30
35445;DHT22;21562;49.476;6.086;2023-02-27T16:01:19;8.70;83.00
35445;DHT22;21562;49.476;6.086;2023-02-27T16:03:48;9.70;83.00
35445;DHT22;21562;49.476;6.086;2023-02-27T16:06:17;9.50;81.40
35445;DHT22;21562;49.476;6.086;2023-02-27T16:09:04;8.30;82.40
35445;DHT22;21562;49.476;6.086;2023-02-27T16:11:34;7.90;82.30
35445;DHT22;21562;49.476;6.086;2023-02-27T16:14:02;7.50;83.20
35445;DHT22;21562;49.476;6.086;2023-02-27T16:16:33;7.50;82.90
35445;DHT22;21562;49.476;6.086;2023-02-27T16:19:25;7.00;82.70
35445;DHT22;21562;49.476;6.086;2023-02-27T16:22:14;6.50;84.00
35445;DHT22;21562;49.476;6.086;2023-02-27T16:24:40;6.60;84.70
35445;DHT22;21562;49.476;6.086;2023-02-27T16:27:27;6.90;84.80
35445;DHT22;21562;49.476;6.086;2023-02-27T16:29:56;7.00;85.90
35445;DHT22;21562;49.476;6.086;2023-02-27T16:32:29;7.40;84.00
35445;DHT22;21562;49.476;6.086;2023-02-27T16:35:01;7.40;83.80
35445;DHT22;21562;49.476;6.086;2023-02-27T16:37:35;7.30;83.30
35445;DHT22;21562;49.476;6.086;2023-02-27T16:40:04;7.10;83.30
35445;DHT22;21562;49.476;6.086;2023-02-27T16:42:31;6.80;83.90
35445;DHT22;21562;49.476;6.086;2023-02-27T16:44:56;6.80;83.90
35445;DHT22;21562;49.476;6.086;2023-02-27T16:47:22;6.70;83.30
35445;DHT22;21562;49.476;6.086;2023-02-27T16:49:48;6.40;84.60
35445;DHT22;21562;49.476;6.086;2023-02-27T16:52:14;6.60;84.10
35445;DHT22;21562;49.476;6.086;2023-02-27T16:54:39;6.70;83.90
35445;DHT22;21562;49.476;6.086;2023-02-27T16:57:05;6.50;84.10
35445;DHT22;21562;49.476;6.086;2023-02-27T16:59:38;6.60;85.00
35445;DHT22;21562;49.476;6.086;2023-02-27T17:02:06;6.70;85.00
35445;DHT22;21562;49.476;6.086;2023-02-27T17:04:34;6.90;84.40
35445;DHT22;21562;49.476;6.086;2023-02-27T17:07:00;6.70;85.40
35445;DHT22;21562;49.476;6.086;2023-02-27T17:09:26;6.90;85.30
35445;DHT22;21562;49.476;6.086;2023-02-27T17:11:53;6.90;84.90
35445;DHT22;21562;49.476;6.086;2023-02-27T17:14:19;7.00;84.60
35445;DHT22;21562;49.476;6.086;2023-02-27T17:16:45;6.80;85.30
35445;DHT22;21562;49.476;6.086;2023-02-27T17:19:12;6.50;86.30
35445;DHT22;21562;49.476;6.086;2023-02-27T17:21:39;6.00;88.50
35445;DHT22;21562;49.476;6.086;2023-02-27T17:24:05;5.90;88.80
35445;DHT22;21562;49.476;6.086;2023-02-27T17:26:31;5.70;89.50
35445;DHT22;21562;49.476;6.086;2023-02-27T17:28:57;5.60;89.90
35445;DHT22;21562;49.476;6.086;2023-02-27T17:31:23;5.60;90.10
35445;DHT22;21562;49.476;6.086;2023-02-27T17:33:52;5.70;88.60
35445;DHT22;21562;49.476;6.086;2023-02-27T17:36:19;5.50;89.00
35445;DHT22;21562;49.476;6.086;2023-02-27T17:38:45;5.40;89.40
35445;DHT22;21562;49.476;6.086;2023-02-27T17:41:12;5.60;89.70
35445;DHT22;21562;49.476;6.086;2023-02-27T17:43:38;5.80;88.60
35445;DHT22;21562;49.476;6.086;2023-02-27T17:46:07;5.80;88.90
35445;DHT22;21562;49.476;6.086;2023-02-27T17:48:33;5.90;88.00
35445;DHT22;21562;49.476;6.086;2023-02-27T17:51:18;5.80;88.20
35445;DHT22;21562;49.476;6.086;2023-02-27T17:53:43;5.60;88.30
35445;DHT22;21562;49.476;6.086;2023-02-27T17:56:10;5.60;88.70
35445;DHT22;21562;49.476;6.086;2023-02-27T17:58:36;5.40;89.30
35445;DHT22;21562;49.476;6.086;2023-02-27T18:01:08;5.50;89.80
35445;DHT22;21562;49.476;6.086;2023-02-27T18:03:36;5.60;90.00
35445;DHT22;21562;49.476;6.086;2023-02-27T18:06:02;5.80;88.90
35445;DHT22;21562;49.476;6.086;2023-02-27T18:08:29;6.00;88.00
35445;DHT22;21562;49.476;6.086;2023-02-27T18:10:56;6.10;88.00
35445;DHT22;21562;49.476;6.086;2023-02-27T18:13:23;6.30;87.00
35445;DHT22;21562;49.476;6.086;2023-02-27T18:15:50;6.40;87.00